Time;durP1;ratioP1;P1;durP2;ratioP2;P2;SDS_P1;SDS_P2;PMS_P1;PMS_P2;Temp;Humidity;BMP_temperature;BMP_pressure;BME280_temperature;BME280_humidity;BME280_pressure;Samples;Min_cycle;Max_cycle;Signal;HPM_P1;HPM_P2
2022/04/01 00:02:23;;;;;;;1.90;1.80;;;9.70;99.90;;;;;;5092611;28;20173;-54
2022/04/01 00:04:49;;;;;;;2.07;1.87;;;;;;;;;;5093229;28;20205;-50
2022/04/01 00:07:15;;;;;;;1.80;1.70;;;9.80;99.90;;;;;;5092826;28;20270;-56
2022/04/01 00:09:40;;;;;;;1.67;1.57;;;9.70;99.90;;;;;;5092854;28;20178;-54
2022/04/01 00:12:07;;;;;;;1.80;1.70;;;;;;;;;;5092814;28;20327;-53
2022/04/01 00:14:33;;;;;;;1.60;1.50;;;;;;;;;;5092272;28;20273;-55
2022/04/01 00:16:58;;;;;;;1.80;1.70;;;9.60;99.90;;;;;;5092685;28;20225;-54
2022/04/01 00:19:24;;;;;;;1.80;1.70;;;9.50;99.90;;;;;;5092606;28;20241;-53
2022/04/01 00:21:50;;;;;;;1.67;1.57;;;9.50;99.90;;;;;;5093558;28;20173;-54
2022/04/01 00:24:16;;;;;;;1.80;1.70;;;9.50;99.90;;;;;;5093674;28;20169;-55
2022/04/01 00:26:43;;;;;;;1.63;1.53;;;9.50;99.90;;;;;;5092697;28;20747;-56
2022/04/01 00:29:16;;;;;;;2.03;1.83;;;;;;;;;;5092486;28;20192;-56
2022/04/01 00:31:45;;;;;;;1.83;1.73;;;9.50;99.90;;;;;;5088276;28;20188;-56
2022/04/01 00:34:18;;;;;;;1.60;1.50;;;9.50;99.90;;;;;;5108238;28;20178;-53
2022/04/01 00:36:48;;;;;;;2.10;1.90;;;9.40;99.90;;;;;;5092180;28;20272;-54
2022/04/01 00:39:16;;;;;;;1.50;1.40;;;9.40;99.90;;;;;;5091779;28;20190;-54
2022/04/01 00:41:44;;;;;;;1.77;1.67;;;9.40;99.90;;;;;;5092141;28;20166;-56
2022/04/01 00:44:15;;;;;;;1.60;1.50;;;9.50;99.90;;;;;;5092081;28;20556;-54
2022/04/01 00:46:46;;;;;;;1.50;1.40;;;9.50;99.90;;;;;;5092147;28;20276;-56
2022/04/01 00:49:12;;;;;;;1.83;1.73;;;9.40;99.90;;;;;;5111588;28;20173;-54
2022/04/01 00:51:42;;;;;;;1.80;1.70;;;9.50;99.90;;;;;;5112438;28;20298;-53
2022/04/01 00:54:08;;;;;;;1.63;1.53;;;9.30;99.90;;;;;;5112075;28;20177;-53
2022/04/01 00:56:35;;;;;;;1.80;1.70;;;9.70;99.90;;;;;;5112529;28;20197;-55
2022/04/01 00:59:02;;;;;;;2.03;1.83;;;9.50;99.90;;;;;;5112690;28;20220;-52
2022/04/01 01:01:30;;;;;;;1.80;1.70;;;9.60;99.90;;;;;;5112449;28;20600;-55
2022/04/01 01:03:58;;;;;;;2.00;1.90;;;9.50;99.90;;;;;;5111735;28;20165;-49
2022/04/01 01:06:25;;;;;;;1.80;1.70;;;9.50;99.90;;;;;;5111959;28;20184;-49
2022/04/01 01:08:51;;;;;;;2.00;1.63;;;9.30;99.90;;;;;;5112589;28;20275;-50
2022/04/01 01:11:16;;;;;;;1.73;1.60;;;9.40;99.90;;;;;;5112604;28;20172;-54
2022/04/01 01:13:42;;;;;;;1.70;1.60;;;;;;;;;;5112079;28;20538;-53
2022/04/01 01:16:09;;;;;;;1.80;1.70;;;9.40;99.90;;;;;;5112311;28;20176;-49
2022/04/01 01:18:35;;;;;;;1.70;1.60;;;9.50;99.90;;;;;;5111943;28;20161;-53
2022/04/01 01:21:02;;;;;;;1.60;1.50;;;;;;;;;;5112187;28;20192;-52
2022/04/01 01:23:31;;;;;;;1.70;1.60;;;9.30;99.90;;;;;;5111877;28;20165;-50
2022/04/01 01:25:57;;;;;;;1.73;1.63;;;;;;;;;;5112133;28;20588;-53
2022/04/01 01:28:24;;;;;;;1.97;1.87;;;;;;;;;;5112129;28;20169;-53
2022/04/01 01:30:50;;;;;;;2.10;1.90;;;;;;;;;;5111998;28;20172;-55
2022/04/01 01:33:19;;;;;;;1.60;1.50;;;9.40;99.90;;;;;;5111848;28;20165;-52
2022/04/01 01:35:44;;;;;;;1.80;1.70;;;9.30;99.90;;;;;;5112059;28;20217;-52
2022/04/01 01:38:10;;;;;;;1.90;1.70;;;;;;;;;;5109621;28;20541;-53
2022/04/01 01:40:35;;;;;;;1.63;1.53;;;9.30;99.90;;;;;;5091567;28;20754;-53
2022/04/01 01:43:01;;;;;;;1.73;1.50;;;9.30;99.90;;;;;;5091152;28;20516;-50
2022/04/01 01:45:29;;;;;;;1.60;1.50;;;9.30;99.90;;;;;;5091630;28;20182;-54
2022/04/01 01:47:56;;;;;;;1.90;1.80;;;9.20;99.90;;;;;;5090221;28;20197;-53
2022/04/01 01:55:50;;;;;;;1.70;1.60;;;;;;;;;;5076928;28;20670;-56
2022/04/01 01:58:16;;;;;;;1.50;1.40;;;9.20;99.90;;;;;;5089144;28;20174;-52
2022/04/01 02:00:42;;;;;;;1.63;1.53;;;9.30;99.90;;;;;;5091038;28;20639;-52
2022/04/01 02:03:10;;;;;;;1.67;1.57;;;;;;;;;;5083032;28;20221;-52
2022/04/01 02:05:35;;;;;;;1.57;1.47;;;9.10;99.90;;;;;;5091417;28;20166;-49
2022/04/01 02:08:02;;;;;;;1.60;1.50;;;9.10;99.90;;;;;;5095268;28;20623;-53
2022/04/01 02:10:28;;;;;;;2.10;1.90;;;9.20;99.90;;;;;;5094717;28;20166;-51
2022/04/01 02:12:53;;;;;;;2.07;1.97;;;8.90;99.90;;;;;;5091708;28;20188;-53
2022/04/01 02:15:20;;;;;;;1.60;1.50;;;9.00;99.90;;;;;;5094846;28;20559;-51
2022/04/01 02:17:46;;;;;;;1.90;1.80;;;8.90;99.90;;;;;;5095050;28;20676;-49
2022/04/01 02:20:12;;;;;;;1.57;1.47;;;8.90;99.90;;;;;;5094684;28;20233;-52
2022/04/01 02:22:38;;;;;;;1.80;1.70;;;9.00;99.90;;;;;;5094621;28;20577;-50
2022/04/01 02:25:07;;;;;;;1.70;1.60;;;9.10;99.90;;;;;;5095005;28;20239;-53
2022/04/01 02:27:33;;;;;;;1.83;1.73;;;9.10;99.90;;;;;;5094508;28;20197;-50
2022/04/01 02:29:59;;;;;;;2.60;2.13;;;9.00;99.90;;;;;;5092294;28;20170;-50
2022/04/01 02:32:25;;;;;;;1.87;1.77;;;9.20;99.90;;;;;;5094378;28;20170;-49
2022/04/01 02:34:51;;;;;;;1.77;1.67;;;9.30;99.90;;;;;;5094883;28;20173;-50
2022/04/01 02:37:20;;;;;;;2.17;1.97;;;9.10;99.90;;;;;;5094611;28;20213;-52
2022/04/01 02:39:46;;;;;;;2.13;2.03;;;9.10;99.90;;;;;;5094685;28;20193;-50
2022/04/01 02:42:12;;;;;;;2.20;2.03;;;;;;;;;;5094334;28;20177;-54
2022/04/01 02:44:38;;;;;;;2.03;1.93;;;9.10;99.90;;;;;;5094200;28;20630;-54
2022/04/01 02:47:03;;;;;;;2.13;1.97;;;9.20;99.90;;;;;;5094671;28;20197;-53
2022/04/01 02:49:29;;;;;;;1.60;1.50;;;9.10;99.90;;;;;;5094382;28;20174;-49
2022/04/01 02:51:55;;;;;;;1.93;1.83;;;9.00;99.90;;;;;;5094304;28;20180;-55
2022/04/01 02:54:21;;;;;;;1.80;1.70;;;;;;;;;;5094097;28;20252;-53
2022/04/01 02:56:47;;;;;;;1.77;1.63;;;;;;;;;;5094294;28;20186;-52
2022/04/01 02:59:13;;;;;;;2.20;2.00;;;8.90;99.90;;;;;;5094075;28;20726;-50
2022/04/01 03:01:40;;;;;;;1.83;1.73;;;9.00;99.90;;;;;;5094268;28;20170;-50
2022/04/01 03:04:10;;;;;;;2.13;1.93;;;9.00;99.90;;;;;;5092239;28;20228;-53
2022/04/01 03:06:41;;;;;;;2.03;1.93;;;8.90;99.90;;;;;;5094328;28;20558;-54
2022/04/01 03:09:07;;;;;;;1.97;1.83;;;9.00;99.90;;;;;;5094162;28;20715;-49
2022/04/01 03:11:34;;;;;;;1.90;1.80;;;8.80;99.90;;;;;;5094119;28;20178;-54
2022/04/01 03:14:00;;;;;;;2.00;1.90;;;;;;;;;;5093677;28;20169;-53
2022/04/01 03:16:26;;;;;;;2.03;1.90;;;8.80;99.90;;;;;;5093870;28;20852;-50
2022/04/01 03:18:53;;;;;;;2.73;2.00;;;9.00;99.90;;;;;;5093631;28;20185;-52
2022/04/01 03:21:19;;;;;;;2.17;1.97;;;8.80;99.90;;;;;;5093938;28;20150;-53
2022/04/01 03:23:44;;;;;;;2.00;1.90;;;9.00;99.90;;;;;;5093398;28;20177;-54
2022/04/01 03:26:10;;;;;;;2.20;2.00;;;9.00;99.90;;;;;;5093722;28;20185;-54
2022/04/01 03:28:36;;;;;;;2.30;1.83;;;8.90;99.90;;;;;;5093573;28;20248;-49
2022/04/01 03:31:06;;;;;;;1.80;1.70;;;9.00;99.90;;;;;;5093671;28;20178;-56
2022/04/01 03:33:33;;;;;;;1.90;1.80;;;8.90;99.90;;;;;;5094720;28;20166;-52
2022/04/01 03:35:59;;;;;;;1.80;1.70;;;9.00;99.90;;;;;;5093450;28;20190;-52
2022/04/01 03:38:25;;;;;;;1.80;1.70;;;8.80;99.90;;;;;;5093712;28;20173;-56
2022/04/01 03:40:51;;;;;;;1.70;1.60;;;8.80;99.90;;;;;;5093195;28;20198;-56
2022/04/01 03:43:20;;;;;;;1.80;1.70;;;8.90;99.90;;;;;;5093215;28;20178;-52
2022/04/01 03:45:49;;;;;;;3.60;2.20;;;8.90;99.90;;;;;;5093232;28;20677;-52
2022/04/01 03:48:39;;;;;;;2.10;2.00;;;8.90;99.90;;;;;;5093445;28;20185;-55
2022/04/01 03:51:05;;;;;;;2.90;2.53;;;8.70;99.90;;;;;;5093537;28;20166;-53
2022/04/01 03:53:33;;;;;;;3.47;2.03;;;9.00;99.90;;;;;;5092968;28;20230;-56
2022/04/01 03:56:00;;;;;;;1.97;1.87;;;8.60;99.90;;;;;;5093171;28;20186;-55
2022/04/01 03:58:31;;;;;;;2.17;2.00;;;9.00;99.90;;;;;;5093288;28;20209;-56
2022/04/01 04:00:58;;;;;;;2.30;2.10;;;8.90;99.90;;;;;;5093458;28;20221;-57
2022/04/01 04:03:25;;;;;;;2.80;2.10;;;9.20;99.90;;;;;;5093121;28;20173;-56
2022/04/01 04:05:52;;;;;;;1.97;1.87;;;8.80;99.90;;;;;;5092940;28;20177;-56
2022/04/01 04:08:19;;;;;;;1.80;1.70;;;8.70;99.90;;;;;;5093203;28;20162;-54
2022/04/01 04:10:52;;;;;;;1.97;1.80;;;8.80;99.90;;;;;;5085923;28;20547;-55
2022/04/01 04:13:20;;;;;;;2.13;1.93;;;9.20;99.90;;;;;;5084446;28;20174;-56
2022/04/01 04:15:56;;;;;;;1.90;1.80;;;8.80;99.90;;;;;;5092870;28;20182;-54
2022/04/01 04:18:30;;;;;;;2.00;1.90;;;8.90;99.90;;;;;;5092642;28;20212;-52
2022/04/01 04:21:04;;;;;;;2.60;2.40;;;8.90;99.90;;;;;;5092705;28;20251;-53
2022/04/01 04:23:37;;;;;;;3.17;2.20;;;8.80;99.90;;;;;;5092442;28;20580;-53
2022/04/01 04:26:15;;;;;;;2.70;2.50;;;8.80;99.90;;;;;;5092638;28;20197;-52
2022/04/01 04:28:49;;;;;;;2.57;2.37;;;9.50;99.90;;;;;;5092064;28;20154;-55
2022/04/01 04:31:23;;;;;;;2.70;2.50;;;8.50;99.90;;;;;;5092736;28;20160;-58
2022/04/01 04:33:54;;;;;;;2.63;2.43;;;8.50;99.90;;;;;;5092191;28;20205;-56
2022/04/01 04:36:30;;;;;;;3.70;2.60;;;8.70;99.90;;;;;;5092557;28;20558;-57
2022/04/01 04:38:56;;;;;;;2.53;2.33;;;8.60;99.90;;;;;;5091064;28;20177;-53
2022/04/01 04:41:24;;;;;;;26.43;23.93;;;8.60;99.90;;;;;;5092299;28;20182;-54
2022/04/01 04:43:50;;;;;;;3.40;3.20;;;8.60;99.90;;;;;;5092094;28;20172;-52
2022/04/01 04:46:17;;;;;;;3.87;2.60;;;;;;;;;;5092429;28;20257;-54
2022/04/01 04:48:46;;;;;;;3.00;2.50;;;8.40;99.90;;;;;;5092127;28;20223;-56
2022/04/01 04:51:12;;;;;;;2.17;2.07;;;8.30;99.90;;;;;;5092288;28;20202;-53
2022/04/01 04:53:39;;;;;;;2.30;2.10;;;8.30;99.90;;;;;;5091892;28;20534;-54
2022/04/01 04:56:05;;;;;;;2.47;2.27;;;8.40;99.90;;;;;;5092096;28;20217;-55
2022/04/01 04:58:39;;;;;;;2.60;2.40;;;8.40;99.90;;;;;;5092156;28;20229;-54
2022/04/01 05:01:24;;;;;;;2.50;2.30;;;8.20;99.90;;;;;;5092061;28;20229;-54
2022/04/01 05:04:25;;;;;;;2.27;2.17;;;8.40;99.90;;;;;;5091646;28;20249;-51
2022/04/01 05:07:09;;;;;;;2.20;2.10;;;8.00;99.90;;;;;;5092060;28;20523;-53
2022/04/01 05:09:45;;;;;;;2.50;2.30;;;8.00;99.90;;;;;;5091965;28;20203;-54
2022/04/01 05:12:33;;;;;;;2.40;2.20;;;8.10;99.90;;;;;;5091865;28;20264;-54
2022/04/01 05:15:05;;;;;;;2.07;1.97;;;8.10;99.90;;;;;;5091955;28;20219;-54
2022/04/01 05:17:36;;;;;;;2.10;2.00;;;8.10;99.90;;;;;;5092010;28;20284;-53
2022/04/01 05:20:15;;;;;;;2.00;1.90;;;8.10;99.90;;;;;;5091440;28;20236;-53
2022/04/01 05:23:06;;;;;;;2.20;2.10;;;8.00;99.90;;;;;;5085414;28;20669;-54
2022/04/01 05:25:44;;;;;;;2.20;2.10;;;8.20;99.90;;;;;;5089979;28;20165;-55
2022/04/01 05:28:23;;;;;;;2.30;2.10;;;8.20;99.90;;;;;;5091167;28;20252;-55
2022/04/01 05:31:13;;;;;;;2.10;2.00;;;8.30;99.90;;;;;;5091091;28;20178;-54
2022/04/01 05:34:23;;;;;;;3.40;2.60;;;8.30;99.90;;;;;;5080874;28;20177;-54
2022/04/01 05:36:51;;;;;;;2.50;2.30;;;8.20;99.90;;;;;;5046636;28;20237;-52
2022/04/01 05:39:17;;;;;;;2.70;2.10;;;8.00;99.90;;;;;;5090135;28;20197;-51
2022/04/01 05:41:45;;;;;;;2.47;2.27;;;8.00;99.90;;;;;;5086456;28;20184;-54
2022/04/01 05:44:12;;;;;;;2.20;2.10;;;8.00;99.90;;;;;;5094607;28;20186;-55
2022/04/01 05:46:39;;;;;;;2.53;2.33;;;;;;;;;;5095330;28;20658;-53
2022/04/01 05:49:05;;;;;;;2.93;2.73;;;8.30;99.90;;;;;;5078982;28;20183;-56
2022/04/01 05:51:32;;;;;;;2.60;2.40;;;8.70;99.90;;;;;;5075276;28;20189;-55
2022/04/01 05:53:58;;;;;;;3.10;2.80;;;8.40;99.90;;;;;;5076194;28;20177;-55
2022/04/01 05:56:25;;;;;;;2.90;2.67;;;8.20;99.90;;;;;;5083005;28;20658;-52
2022/04/01 05:58:52;;;;;;;3.07;2.77;;;;;;;;;;5093740;28;20215;-48
2022/04/01 06:01:45;;;;;;;3.20;2.87;;;8.40;99.90;;;;;;5095336;28;20177;-50
2022/04/01 06:04:44;;;;;;;3.47;3.17;;;8.30;99.90;;;;;;5095398;28;20223;-53
2022/04/01 06:07:17;;;;;;;2.90;2.70;;;8.20;99.90;;;;;;5090118;28;20198;-49
2022/04/01 06:09:42;;;;;;;2.90;2.70;;;;;;;;;;5094814;28;20173;-51
2022/04/01 06:12:26;;;;;;;3.00;2.80;;;8.10;99.90;;;;;;5081893;28;20231;-51
2022/04/01 06:15:02;;;;;;;3.30;3.00;;;8.00;99.90;;;;;;5074334;28;20182;-51
2022/04/01 06:17:59;;;;;;;3.40;3.10;;;8.10;99.90;;;;;;5074794;28;20201;-55
2022/04/01 06:20:27;;;;;;;3.40;3.10;;;8.10;99.90;;;;;;5074276;28;20228;-49
2022/04/01 06:23:00;;;;;;;3.30;3.00;;;8.20;99.90;;;;;;5105792;28;20205;-47
2022/04/01 06:25:30;;;;;;;3.70;3.00;;;8.20;99.90;;;;;;5083808;28;20278;-52
2022/04/01 06:28:20;;;;;;;3.47;3.17;;;8.40;99.90;;;;;;5081741;28;20232;-53
2022/04/01 06:30:47;;;;;;;2.87;2.67;;;8.30;99.90;;;;;;5086547;28;20182;-55
2022/04/01 06:33:35;;;;;;;2.77;2.57;;;8.20;99.90;;;;;;5088221;28;20170;-55
2022/04/01 06:36:03;;;;;;;3.23;2.77;;;8.30;99.90;;;;;;5091156;28;20201;-51
2022/04/01 06:38:38;;;;;;;3.30;3.00;;;8.30;99.90;;;;;;5083501;28;20179;-52
2022/04/01 06:41:09;;;;;;;3.50;3.20;;;8.40;99.90;;;;;;5082833;28;20194;-52
2022/04/01 06:43:35;;;;;;;3.57;3.20;;;8.20;99.90;;;;;;5084373;28;20538;-52
2022/04/01 06:46:03;;;;;;;3.60;3.30;;;7.90;99.90;;;;;;5083200;28;20197;-50
2022/04/01 06:48:29;;;;;;;3.50;3.20;;;8.10;99.90;;;;;;5078517;28;20557;-52
2022/04/01 06:50:55;;;;;;;3.30;3.03;;;;;;;;;;5087535;28;20190;-54
2022/04/01 06:53:21;;;;;;;3.60;3.30;;;8.10;99.90;;;;;;5087595;28;20180;-49
2022/04/01 06:55:48;;;;;;;3.80;3.50;;;8.10;99.90;;;;;;5084225;28;20570;-48
2022/04/01 06:58:14;;;;;;;3.90;3.50;;;8.30;99.90;;;;;;5096771;28;20206;-50
2022/04/01 07:00:41;;;;;;;3.47;3.17;;;8.20;99.90;;;;;;5091410;28;20595;-49
2022/04/01 07:03:07;;;;;;;4.33;3.93;;;8.30;99.90;;;;;;5094286;28;20166;-48
2022/04/01 07:05:35;;;;;;;5.07;4.57;;;8.30;99.90;;;;;;5087937;28;20191;-53
2022/04/01 07:08:04;;;;;;;4.80;4.30;;;8.00;99.90;;;;;;5090401;28;20194;-53
2022/04/01 07:10:30;;;;;;;4.43;4.03;;;8.40;99.90;;;;;;5088345;28;20169;-50
2022/04/01 07:12:56;;;;;;;5.27;4.60;;;8.20;99.90;;;;;;5088677;28;20182;-52
2022/04/01 07:15:22;;;;;;;6.60;6.00;;;8.40;99.90;;;;;;5088114;28;20175;-54
2022/04/01 07:17:48;;;;;;;5.23;4.73;;;;;;;;;;5102506;28;20197;-51
2022/04/01 07:20:15;;;;;;;6.17;5.57;;;;;;;;;;5090745;28;20194;-53
2022/04/01 07:22:41;;;;;;;6.57;5.93;;;8.00;99.90;;;;;;5096465;28;20221;-50
2022/04/01 07:25:08;;;;;;;6.00;5.40;;;8.20;99.90;;;;;;5094967;28;20559;-50
2022/04/01 07:27:34;;;;;;;5.00;4.50;;;8.20;99.90;;;;;;5094371;28;20192;-51
2022/04/01 07:30:00;;;;;;;5.40;4.87;;;;;;;;;;5097507;28;20261;-48
2022/04/01 07:32:32;;;;;;;4.67;4.20;;;8.20;99.90;;;;;;5093076;28;20182;-48
2022/04/01 07:35:00;;;;;;;4.30;3.90;;;8.20;99.90;;;;;;5093527;28;20542;-52
2022/04/01 07:37:28;;;;;;;4.70;4.30;;;8.30;99.90;;;;;;5096118;28;20197;-49
2022/04/01 07:39:56;;;;;;;4.17;3.77;;;8.20;99.90;;;;;;5087396;28;20275;-52
2022/04/01 07:42:23;;;;;;;4.57;4.17;;;8.00;99.90;;;;;;5087730;28;20635;-51
2022/04/01 07:44:50;;;;;;;4.30;4.00;;;8.30;99.90;;;;;;5096341;28;20545;-51
2022/04/01 07:47:16;;;;;;;4.97;3.93;;;;;;;;;;5069168;28;20201;-53
2022/04/01 07:49:42;;;;;;;4.83;4.40;;;8.30;99.90;;;;;;5093029;28;20197;-52
2022/04/01 07:52:09;;;;;;;4.10;3.70;;;8.40;99.90;;;;;;5093300;28;20238;-53
2022/04/01 07:54:38;;;;;;;3.70;3.40;;;8.50;99.90;;;;;;5092641;28;20190;-48
2022/04/01 07:57:05;;;;;;;4.10;3.80;;;8.50;99.90;;;;;;5092952;28;20200;-48
2022/04/01 07:59:31;;;;;;;5.03;4.53;;;8.30;99.90;;;;;;5092860;28;20205;-48
2022/04/01 08:01:57;;;;;;;4.80;4.37;;;;;;;;;;5092944;28;20291;-53
2022/04/01 08:04:25;;;;;;;3.87;3.57;;;8.60;99.90;;;;;;5091720;28;20293;-52
2022/04/01 08:06:51;;;;;;;4.40;4.00;;;;;;;;;;5093199;28;20186;-53
2022/04/01 08:09:17;;;;;;;4.20;3.80;;;;;;;;;;5091728;28;20192;-53
2022/04/01 08:11:43;;;;;;;4.23;3.83;;;;;;;;;;5086563;28;20595;-53
2022/04/01 08:14:09;;;;;;;4.00;3.60;;;;;;;;;;5087845;28;20200;-48
2022/04/01 08:16:34;;;;;;;4.00;3.70;;;8.40;99.90;;;;;;5083973;28;20192;-48
2022/04/01 08:19:00;;;;;;;3.70;3.40;;;8.60;99.90;;;;;;5082461;28;20195;-50
2022/04/01 08:21:26;;;;;;;3.70;3.40;;;;;;;;;;5086267;28;20581;-53
2022/04/01 08:23:52;;;;;;;3.60;3.30;;;;;;;;;;5080802;28;20235;-53
2022/04/01 08:26:18;;;;;;;3.77;3.47;;;;;;;;;;5078282;28;20193;-55
2022/04/01 08:28:44;;;;;;;3.47;3.17;;;;;;;;;;5087997;28;20273;-54
2022/04/01 08:31:10;;;;;;;3.63;3.20;;;8.40;99.90;;;;;;5092032;28;20205;-52
2022/04/01 08:33:37;;;;;;;3.43;3.13;;;8.60;99.90;;;;;;5091420;28;20220;-51
2022/04/01 08:36:03;;;;;;;3.47;3.17;;;8.70;99.90;;;;;;5091849;28;20297;-55
2022/04/01 08:38:29;;;;;;;3.10;2.80;;;8.70;99.90;;;;;;5092173;28;20583;-51
2022/04/01 08:40:55;;;;;;;2.87;2.67;;;;;;;;;;5092140;28;20288;-55
2022/04/01 08:43:29;;;;;;;4.63;4.23;;;8.70;99.90;;;;;;5091692;28;20174;-51
2022/04/01 08:46:00;;;;;;;3.10;2.90;;;8.50;99.90;;;;;;5091886;28;20265;-50
2022/04/01 08:48:27;;;;;;;3.47;3.17;;;8.60;99.90;;;;;;5092076;28;20219;-51
2022/04/01 08:50:53;;;;;;;3.40;3.10;;;;;;;;;;5092210;28;20256;-50
2022/04/01 08:53:19;;;;;;;3.37;3.17;;;;;;;;;;5091506;28;20181;-52
2022/04/01 08:55:52;;;;;;;3.70;3.40;;;8.60;99.90;;;;;;5092158;28;20520;-52
2022/04/01 08:58:19;;;;;;;3.60;3.30;;;8.60;99.90;;;;;;5091988;28;20170;-51
2022/04/01 09:00:46;;;;;;;3.70;3.13;;;8.70;99.90;;;;;;5091824;28;20540;-51
2022/04/01 09:03:13;;;;;;;3.30;3.00;;;8.60;99.90;;;;;;5091848;28;20204;-54
2022/04/01 09:05:44;;;;;;;3.00;2.70;;;8.70;99.90;;;;;;5090978;28;20633;-51
2022/04/01 09:08:14;;;;;;;3.37;3.07;;;8.60;99.90;;;;;;5082296;28;20157;-51
2022/04/01 09:10:49;;;;;;;3.00;2.80;;;8.40;99.90;;;;;;5076855;28;20530;-50
2022/04/01 09:13:15;;;;;;;3.60;3.10;;;;;;;;;;5071463;28;20257;-54
2022/04/01 09:15:43;;;;;;;3.70;3.40;;;8.50;99.90;;;;;;5071332;28;20170;-54
2022/04/01 09:18:09;;;;;;;3.77;3.47;;;8.40;99.90;;;;;;5073822;28;20174;-54
2022/04/01 09:20:48;;;;;;;4.13;3.60;;;8.50;99.90;;;;;;5091389;28;20288;-54
2022/04/01 09:23:23;;;;;;;3.57;3.27;;;8.80;99.90;;;;;;5091395;28;20165;-54
2022/04/01 09:25:49;;;;;;;5.20;4.00;;;8.60;99.90;;;;;;5090412;28;20211;-54
2022/04/01 09:28:32;;;;;;;4.80;3.70;;;8.50;99.90;;;;;;5090917;28;20158;-50
2022/04/01 09:31:01;;;;;;;4.73;4.03;;;8.80;99.90;;;;;;5091024;28;20166;-52
2022/04/01 09:33:54;;;;;;;7.17;6.57;;;8.50;99.90;;;;;;5090839;28;20201;-53
2022/04/01 09:36:29;;;;;;;4.13;3.20;;;8.70;99.90;;;;;;5118822;22;20238;-48
2022/04/01 09:38:55;;;;;;;3.80;3.50;;;;;;;;;;5046541;28;20217;-51
2022/04/01 09:41:21;;;;;;;5.43;4.93;;;;;;;;;;5050493;28;20179;-52
2022/04/01 09:43:47;;;;;;;25.20;21.53;;;;;;;;;;5045957;28;20260;-49
2022/04/01 09:46:26;;;;;;;21.07;17.63;;;9.20;99.90;;;;;;5053099;28;20563;-49
2022/04/01 09:48:57;;;;;;;22.23;19.47;;;9.30;99.90;;;;;;5070174;28;20186;-49
2022/04/01 09:51:24;;;;;;;11.13;9.03;;;9.30;99.90;;;;;;5068695;28;20251;-53
2022/04/01 09:53:54;;;;;;;5.60;5.00;;;9.20;99.90;;;;;;5069543;28;20197;-51
2022/04/01 09:56:39;;;;;;;12.70;10.03;;;9.30;99.90;;;;;;5070387;28;20197;-49
2022/04/01 09:59:06;;;;;;;24.67;20.17;;;9.10;99.90;;;;;;5070666;28;20504;-50
2022/04/01 10:01:36;;;;;;;3.67;3.30;;;9.40;99.90;;;;;;5070808;28;20624;-50
2022/04/01 10:04:02;;;;;;;3.20;3.00;;;9.20;99.90;;;;;;5070336;28;20197;-52
2022/04/01 10:06:30;;;;;;;3.23;2.80;;;9.50;99.90;;;;;;5071016;28;20892;-49
2022/04/01 10:08:59;;;;;;;3.80;2.57;;;9.30;99.90;;;;;;5070504;28;20527;-49
2022/04/01 10:11:25;;;;;;;2.43;2.23;;;;;;;;;;5069329;28;20228;-52
2022/04/01 10:13:52;;;;;;;2.80;2.60;;;9.40;99.90;;;;;;5070362;28;20170;-51
2022/04/01 10:16:19;;;;;;;3.70;2.60;;;9.70;99.90;;;;;;5069931;28;20187;-48
2022/04/01 10:18:47;;;;;;;4.53;2.63;;;9.60;99.90;;;;;;5064516;28;20181;-51
2022/04/01 10:21:17;;;;;;;3.50;3.20;;;9.50;99.90;;;;;;5056691;28;20568;-50
2022/04/01 10:24:12;;;;;;;2.83;2.57;;;9.30;99.90;;;;;;5049939;28;20176;-50
2022/04/01 10:26:44;;;;;;;3.63;2.67;;;9.60;99.90;;;;;;5048107;28;20727;-55
2022/04/01 10:29:11;;;;;;;3.17;2.77;;;;;;;;;;5019897;28;20200;-51
2022/04/01 10:31:39;;;;;;;2.97;2.77;;;;;;;;;;5029181;28;20191;-49
2022/04/01 10:34:25;;;;;;;2.93;2.73;;;9.50;99.90;;;;;;5030215;28;20195;-51
2022/04/01 10:36:54;;;;;;;3.13;2.83;;;9.90;99.90;;;;;;5031598;28;20738;-49
2022/04/01 10:39:20;;;;;;;3.23;2.93;;;;;;;;;;4998540;28;20238;-51
2022/04/01 10:42:11;;;;;;;3.00;2.80;;;9.70;99.90;;;;;;4999014;28;20176;-49
2022/04/01 10:44:57;;;;;;;2.83;2.63;;;9.70;99.90;;;;;;5014511;28;20207;-52
2022/04/01 10:53:36;;;;;;;2.47;2.27;;;9.60;99.90;;;;;;5017657;28;20174;-49
2022/04/01 10:56:20;;;;;;;2.23;2.03;;;9.30;99.90;;;;;;5031179;28;20250;-51
2022/04/01 10:59:01;;;;;;;2.40;2.20;;;9.50;99.90;;;;;;5014696;28;20183;-50
2022/04/01 11:01:27;;;;;;;2.77;2.57;;;9.40;99.90;;;;;;5049561;28;20241;-47
2022/04/01 11:03:53;;;;;;;2.50;2.30;;;10.00;99.90;;;;;;5029102;28;20191;-49
2022/04/01 11:06:23;;;;;;;2.70;2.50;;;9.70;99.90;;;;;;5039592;28;20285;-50
2022/04/01 11:08:53;;;;;;;2.70;2.50;;;9.60;99.90;;;;;;5072253;28;20186;-53
2022/04/01 11:11:18;;;;;;;3.10;2.80;;;9.90;99.90;;;;;;5071693;28;20542;-53
2022/04/01 11:14:04;;;;;;;2.80;2.60;;;9.70;99.90;;;;;;5072558;28;20261;-49
2022/04/01 11:16:52;;;;;;;2.53;2.33;;;9.70;99.90;;;;;;5072965;28;20198;-50
2022/04/01 11:19:22;;;;;;;2.60;2.40;;;9.70;99.90;;;;;;5073047;28;20212;-49
2022/04/01 11:21:48;;;;;;;2.70;2.50;;;9.70;99.90;;;;;;5073674;28;20166;-51
2022/04/01 11:24:22;;;;;;;2.10;2.00;;;9.70;99.90;;;;;;5072512;28;20653;-51
2022/04/01 11:26:48;;;;;;;2.50;2.30;;;9.60;99.90;;;;;;5072583;28;20554;-47
2022/04/01 11:29:21;;;;;;;2.20;2.10;;;9.60;99.90;;;;;;5073607;28;20182;-48
2022/04/01 11:31:47;;;;;;;2.03;1.93;;;9.60;99.90;;;;;;5072674;28;20232;-49
2022/04/01 11:34:13;;;;;;;2.50;2.30;;;9.70;99.90;;;;;;5076737;28;20562;-48
2022/04/01 11:36:40;;;;;;;2.77;2.57;;;9.70;99.90;;;;;;5092509;28;20208;-55
2022/04/01 11:39:06;;;;;;;2.97;2.67;;;9.80;99.90;;;;;;5093356;28;20627;-50
2022/04/01 11:41:47;;;;;;;2.23;2.10;;;9.90;99.90;;;;;;5077772;28;20711;-52
2022/04/01 11:44:14;;;;;;;2.90;2.60;;;9.90;99.90;;;;;;5071412;28;20248;-55
2022/04/01 11:46:40;;;;;;;2.70;2.50;;;9.90;99.90;;;;;;5073121;28;20198;-51
2022/04/01 11:49:07;;;;;;;2.43;2.23;;;10.00;99.90;;;;;;5072535;28;20323;-51
2022/04/01 11:51:37;;;;;;;2.60;2.40;;;10.10;99.90;;;;;;5072449;28;20228;-48
2022/04/01 11:54:02;;;;;;;2.60;2.40;;;10.20;99.90;;;;;;5070857;28;20174;-51
2022/04/01 11:56:28;;;;;;;2.50;2.30;;;10.30;99.90;;;;;;5072896;28;20636;-51
2022/04/01 11:58:56;;;;;;;2.60;2.40;;;10.40;99.90;;;;;;5072949;28;20182;-49
2022/04/01 12:01:28;;;;;;;4.60;3.53;;;10.50;99.90;;;;;;5072081;28;20301;-47
2022/04/01 12:04:04;;;;;;;8.13;6.83;;;10.50;99.90;;;;;;5072302;28;20202;-47
2022/04/01 12:09:14;;;;;;;2.70;2.50;;;10.30;99.90;;;;;;5072160;28;20232;-50
2022/04/01 12:11:41;;;;;;;2.73;2.53;;;10.20;99.90;;;;;;5071641;28;20179;-49
2022/04/01 12:14:07;;;;;;;2.90;2.60;;;10.10;99.90;;;;;;5071840;28;20653;-46
2022/04/01 12:16:42;;;;;;;2.60;2.40;;;10.20;99.90;;;;;;5071695;28;20198;-49
2022/04/01 12:19:13;;;;;;;2.67;2.47;;;10.30;99.90;;;;;;5070898;28;20227;-48
2022/04/01 12:21:38;;;;;;;3.03;2.73;;;10.00;99.90;;;;;;5072245;28;20175;-48
2022/04/01 12:24:04;;;;;;;2.93;2.73;;;9.80;99.90;;;;;;5070725;28;20177;-50
2022/04/01 12:26:30;;;;;;;3.17;2.90;;;9.80;99.90;;;;;;5072391;28;20199;-48
2022/04/01 12:28:56;;;;;;;2.93;2.73;;;9.80;99.90;;;;;;5071819;28;20171;-45
2022/04/01 12:31:26;;;;;;;2.97;2.77;;;11.40;99.90;;;;;;5071683;28;20175;-47
2022/04/01 12:33:57;;;;;;;2.60;2.40;;;9.50;99.90;;;;;;5071423;28;20175;-48
2022/04/01 12:36:34;;;;;;;2.83;2.63;;;9.70;99.90;;;;;;5069108;28;20198;-48
2022/04/01 12:39:11;;;;;;;5.43;4.30;;;9.50;99.90;;;;;;5069830;28;20631;-50
2022/04/01 12:42:10;;;;;;;3.50;3.20;;;9.50;99.90;;;;;;5071491;28;20178;-50
2022/04/01 12:44:39;;;;;;;6.53;4.70;;;9.50;99.90;;;;;;5070462;28;20175;-50
2022/04/01 12:47:05;;;;;;;8.83;8.03;;;9.20;99.90;;;;;;5071203;28;20198;-52
2022/04/01 12:49:33;;;;;;;3.50;3.20;;;9.60;99.90;;;;;;5071318;28;20171;-52
2022/04/01 12:52:12;;;;;;;3.10;2.80;;;9.30;99.90;;;;;;5069812;28;20190;-53
2022/04/01 12:54:40;;;;;;;2.90;2.70;;;9.20;99.90;;;;;;5070319;28;20253;-51
2022/04/01 12:57:11;;;;;;;2.73;2.53;;;8.80;99.90;;;;;;5071028;28;20244;-48
2022/04/01 12:59:37;;;;;;;3.07;2.87;;;;;;;;;;5070325;28;20186;-50
2022/04/01 13:02:06;;;;;;;3.10;2.80;;;9.30;99.90;;;;;;5070549;28;20182;-50
2022/04/01 13:04:44;;;;;;;2.73;2.53;;;9.60;99.90;;;;;;5071065;28;20178;-53
2022/04/01 13:07:15;;;;;;;5.27;2.63;;;9.90;99.90;;;;;;5071518;28;20276;-52
2022/04/01 13:09:48;;;;;;;3.00;2.80;;;9.90;99.90;;;;;;5066715;28;20210;-51
2022/04/01 13:12:15;;;;;;;3.07;2.87;;;9.50;99.90;;;;;;5069325;28;20677;-52
2022/04/01 13:14:42;;;;;;;3.27;3.00;;;9.80;99.90;;;;;;5069857;28;20170;-53
2022/04/01 13:17:15;;;;;;;3.43;3.13;;;9.70;99.90;;;;;;5071645;28;20202;-54
2022/04/01 13:19:43;;;;;;;2.83;2.63;;;9.90;99.90;;;;;;5071246;28;20202;-52
2022/04/01 13:22:08;;;;;;;3.13;2.93;;;9.90;99.90;;;;;;5070925;28;20242;-53
2022/04/01 13:24:41;;;;;;;3.17;2.93;;;9.60;99.90;;;;;;5071017;28;20257;-53
2022/04/01 13:27:10;;;;;;;3.37;3.07;;;9.30;99.90;;;;;;5070907;28;20674;-49
2022/04/01 13:29:36;;;;;;;3.23;2.97;;;9.50;99.90;;;;;;5071606;28;20685;-54
2022/04/01 13:32:02;;;;;;;3.37;3.07;;;9.20;99.90;;;;;;5069728;28;20178;-53
2022/04/01 13:34:28;;;;;;;3.50;3.20;;;9.40;99.90;;;;;;5071174;28;20321;-54
2022/04/01 13:36:55;;;;;;;3.10;2.90;;;9.50;99.90;;;;;;5071278;28;20682;-52
2022/04/01 13:39:23;;;;;;;3.00;2.80;;;;;;;;;;5070908;28;20157;-54